Time;durP1;ratioP1;P1;durP2;ratioP2;P2;SDS_P1;SDS_P2;PMS_P1;PMS_P2;Temp;Humidity;BMP_temperature;BMP_pressure;BME280_temperature;BME280_humidity;BME280_pressure;Samples;Min_cycle;Max_cycle;Signal;HPM_P1;HPM_P2
2023/09/27 00:00:08;;;;;;;4.03;2.33;;;20.60;72.90;;;;;;5083898;28;20063;-61
2023/09/27 00:02:34;;;;;;;4.60;2.17;;;20.60;72.90;;;;;;5087551;28;20113;-62
2023/09/27 00:05:00;;;;;;;4.55;2.20;;;20.60;72.90;;;;;;5084796;28;20415;-61
2023/09/27 00:07:26;;;;;;;4.20;2.17;;;20.60;72.90;;;;;;5071122;28;20045;-61
2023/09/27 00:09:52;;;;;;;3.45;2.10;;;20.60;72.90;;;;;;5071737;28;20033;-61
2023/09/27 00:12:18;;;;;;;4.88;2.40;;;20.60;72.90;;;;;;5074316;28;20056;-61
2023/09/27 00:14:44;;;;;;;4.35;2.38;;;20.60;72.90;;;;;;5075094;28;20051;-61
2023/09/27 00:17:10;;;;;;;3.55;2.25;;;20.60;72.90;;;;;;5074829;28;20484;-62
2023/09/27 00:19:36;;;;;;;3.47;2.35;;;20.60;72.90;;;;;;5074698;28;20041;-62
2023/09/27 00:22:01;;;;;;;3.33;1.90;;;20.60;72.90;;;;;;5074812;28;20511;-61
2023/09/27 00:24:27;;;;;;;3.45;1.90;;;20.60;72.90;;;;;;5076479;28;20037;-61
2023/09/27 00:26:53;;;;;;;4.03;2.28;;;20.60;73.50;;;;;;5054308;28;20080;-62
2023/09/27 00:29:18;;;;;;;3.72;2.03;;;20.50;72.80;;;;;;5054175;28;20049;-61
2023/09/27 00:31:44;;;;;;;4.82;2.00;;;20.60;72.80;;;;;;5091059;28;20384;-61
2023/09/27 00:34:09;;;;;;;3.85;2.05;;;20.50;72.80;;;;;;5093980;28;20075;-62
2023/09/27 00:36:35;;;;;;;4.35;2.13;;;20.50;72.80;;;;;;5094192;28;20047;-61
2023/09/27 00:39:00;;;;;;;4.03;2.00;;;20.50;72.80;;;;;;5094879;28;20543;-62
2023/09/27 00:41:26;;;;;;;4.15;2.30;;;20.50;72.80;;;;;;5093874;28;20036;-62
2023/09/27 00:43:51;;;;;;;3.28;2.08;;;20.50;72.80;;;;;;5094185;28;20101;-61
2023/09/27 00:46:17;;;;;;;3.75;2.25;;;20.50;72.80;;;;;;5094451;28;20079;-61
2023/09/27 00:48:43;;;;;;;4.07;2.42;;;20.50;72.80;;;;;;5076367;28;20082;-62
2023/09/27 00:51:08;;;;;;;3.38;1.95;;;20.50;72.80;;;;;;5093595;28;20423;-61
2023/09/27 00:53:34;;;;;;;3.15;2.13;;;20.50;72.80;;;;;;5094906;28;20043;-62
2023/09/27 00:56:00;;;;;;;3.38;2.00;;;20.50;72.80;;;;;;5082399;28;20041;-61
2023/09/27 00:58:25;;;;;;;3.80;2.20;;;20.50;72.80;;;;;;5072702;28;20144;-61
2023/09/27 01:00:51;;;;;;;3.78;2.33;;;20.50;72.80;;;;;;5073704;28;20044;-62
2023/09/27 01:03:17;;;;;;;4.63;2.33;;;20.50;72.80;;;;;;5073546;28;20551;-62
2023/09/27 01:05:46;;;;;;;4.88;2.10;;;20.50;72.80;;;;;;5073869;28;20131;-62
2023/09/27 01:08:11;;;;;;;2.83;1.92;;;20.50;72.80;;;;;;5073483;28;20068;-62
2023/09/27 01:10:37;;;;;;;3.80;2.03;;;20.50;72.70;;;;;;5073855;28;20561;-61
2023/09/27 01:13:03;;;;;;;4.28;2.30;;;20.50;72.70;;;;;;5073839;28;20044;-61
2023/09/27 01:15:29;;;;;;;3.15;1.90;;;20.50;72.80;;;;;;5073688;28;20097;-61
2023/09/27 01:17:55;;;;;;;4.55;2.22;;;20.50;72.70;;;;;;5074110;28;20040;-61
2023/09/27 01:20:21;;;;;;;3.88;2.30;;;20.50;72.70;;;;;;5073274;28;20377;-61
2023/09/27 01:22:54;;;;;;;4.43;2.40;;;20.50;72.70;;;;;;5073514;28;20039;-62
2023/09/27 01:25:19;;;;;;;3.13;2.00;;;20.50;72.70;;;;;;5072976;28;20050;-61
2023/09/27 01:27:45;;;;;;;3.45;2.00;;;20.50;72.70;;;;;;5071834;28;20123;-61
2023/09/27 01:30:10;;;;;;;4.35;2.30;;;20.50;72.70;;;;;;5071935;28;20036;-62
2023/09/27 01:32:36;;;;;;;3.47;2.10;;;20.40;72.70;;;;;;5073722;28;20106;-62
2023/09/27 01:35:03;;;;;;;3.95;2.45;;;20.40;72.70;;;;;;5073200;28;20373;-61
2023/09/27 01:37:28;;;;;;;3.95;2.10;;;20.40;72.70;;;;;;5072922;28;20052;-62
2023/09/27 01:39:55;;;;;;;4.25;2.20;;;20.40;72.70;;;;;;5055650;28;20045;-62
2023/09/27 01:42:20;;;;;;;3.75;2.20;;;20.40;72.60;;;;;;5073191;28;20044;-61
2023/09/27 01:44:46;;;;;;;3.33;2.20;;;20.40;72.60;;;;;;5073994;28;20047;-61
2023/09/27 01:47:11;;;;;;;3.58;2.17;;;20.40;72.70;;;;;;5086080;28;20040;-62
2023/09/27 01:49:37;;;;;;;4.30;2.72;;;20.40;72.70;;;;;;5093500;28;20071;-61
2023/09/27 01:52:02;;;;;;;4.05;2.63;;;20.40;72.70;;;;;;5075830;28;20047;-61
2023/09/27 01:54:28;;;;;;;3.80;2.17;;;20.40;72.70;;;;;;5074829;28;20051;-62
2023/09/27 01:56:54;;;;;;;2.85;2.20;;;20.40;72.60;;;;;;5077836;28;20388;-61
2023/09/27 01:59:19;;;;;;;3.40;2.35;;;20.40;72.60;;;;;;5072062;28;20122;-61
2023/09/27 02:01:45;;;;;;;3.55;2.20;;;20.40;72.70;;;;;;5073228;28;20048;-61
2023/09/27 02:04:10;;;;;;;4.22;2.35;;;20.40;72.60;;;;;;5071876;28;20064;-61
2023/09/27 02:06:36;;;;;;;4.07;2.22;;;20.40;72.60;;;;;;5072243;28;20040;-61
2023/09/27 02:09:01;;;;;;;3.45;2.15;;;20.40;72.60;;;;;;5072480;28;20086;-61
2023/09/27 02:11:27;;;;;;;5.10;2.50;;;20.40;72.60;;;;;;5072492;28;20044;-62
2023/09/27 02:13:53;;;;;;;4.72;2.30;;;20.40;72.60;;;;;;5072866;28;20131;-61
2023/09/27 02:16:19;;;;;;;3.45;2.42;;;20.40;72.60;;;;;;5072656;28;20068;-62
2023/09/27 02:18:45;;;;;;;3.55;2.35;;;20.40;72.60;;;;;;5072392;28;20050;-61
2023/09/27 02:21:11;;;;;;;4.15;2.20;;;20.40;72.60;;;;;;5072351;28;20072;-62
2023/09/27 02:23:37;;;;;;;3.75;2.33;;;20.40;72.60;;;;;;5072734;28;20431;-62
2023/09/27 02:26:02;;;;;;;3.38;2.45;;;20.40;72.60;;;;;;5072245;28;20040;-62
2023/09/27 02:28:28;;;;;;;3.42;2.35;;;20.30;72.50;;;;;;5072384;28;20044;-62
2023/09/27 02:30:53;;;;;;;3.50;2.20;;;20.40;72.60;;;;;;5072814;28;20090;-62
2023/09/27 02:33:20;;;;;;;3.53;2.20;;;20.40;72.60;;;;;;5082001;28;20123;-61
2023/09/27 02:35:46;;;;;;;3.75;2.33;;;20.30;72.50;;;;;;5089195;28;20043;-62
2023/09/27 02:38:11;;;;;;;3.92;2.20;;;20.30;72.50;;;;;;5072498;28;20036;-61
2023/09/27 02:40:37;;;;;;;3.55;2.28;;;20.40;72.60;;;;;;5072276;28;20036;-62
2023/09/27 02:43:03;;;;;;;3.88;2.50;;;20.30;72.50;;;;;;5072162;28;20045;-62
2023/09/27 02:45:29;;;;;;;3.83;2.45;;;20.40;72.60;;;;;;5072396;28;20479;-62
2023/09/27 02:47:54;;;;;;;3.58;2.15;;;20.30;72.50;;;;;;5071987;28;20048;-61
2023/09/27 02:50:20;;;;;;;3.63;2.40;;;20.30;72.50;;;;;;5071964;28;20039;-61
2023/09/27 02:52:45;;;;;;;4.25;2.40;;;20.30;72.50;;;;;;5072451;28;20127;-61
2023/09/27 02:55:11;;;;;;;3.25;2.53;;;20.30;72.50;;;;;;5071204;28;20178;-61
2023/09/27 02:57:37;;;;;;;3.22;2.00;;;20.30;72.50;;;;;;5053599;28;20186;-61
2023/09/27 03:00:03;;;;;;;3.88;2.33;;;20.30;72.50;;;;;;5050839;28;20569;-62
2023/09/27 03:02:33;;;;;;;3.00;2.13;;;20.30;72.50;;;;;;5068172;28;20441;-62
2023/09/27 03:04:58;;;;;;;2.95;2.10;;;20.30;72.50;;;;;;5071087;28;20048;-62
2023/09/27 03:07:24;;;;;;;3.45;2.20;;;20.30;72.60;;;;;;5071173;28;20048;-61
2023/09/27 03:09:50;;;;;;;3.60;2.35;;;20.30;72.50;;;;;;5071993;28;20048;-62
2023/09/27 03:12:15;;;;;;;4.35;2.25;;;20.30;72.50;;;;;;5072303;28;20119;-61
2023/09/27 03:14:41;;;;;;;3.60;2.40;;;20.30;72.50;;;;;;5071644;28;20137;-61
2023/09/27 03:17:07;;;;;;;3.13;2.25;;;20.30;72.50;;;;;;5057834;28;20041;-61
2023/09/27 03:19:33;;;;;;;3.10;2.40;;;20.30;72.50;;;;;;5052519;28;20052;-61
2023/09/27 03:21:58;;;;;;;3.67;2.30;;;20.30;72.50;;;;;;5063098;28;20511;-61
2023/09/27 03:24:26;;;;;;;3.60;2.35;;;20.30;72.70;;;;;;5070205;28;20047;-61
2023/09/27 03:26:52;;;;;;;3.42;2.30;;;20.30;72.50;;;;;;5072065;28;20116;-61
2023/09/27 03:29:17;;;;;;;3.08;2.20;;;20.30;72.50;;;;;;5070671;28;20120;-62
2023/09/27 03:31:43;;;;;;;3.42;2.25;;;20.30;72.50;;;;;;5061962;28;20399;-61
2023/09/27 03:34:09;;;;;;;4.38;2.60;;;20.30;72.50;;;;;;5051714;28;20095;-62
2023/09/27 03:36:34;;;;;;;4.80;2.80;;;20.30;72.50;;;;;;5058830;28;20029;-62
2023/09/27 03:39:00;;;;;;;3.33;2.20;;;20.30;72.50;;;;;;5071936;28;20439;-62
2023/09/27 03:41:25;;;;;;;3.30;2.47;;;20.30;72.50;;;;;;5088337;28;20050;-61
2023/09/27 03:43:51;;;;;;;3.78;2.60;;;20.20;72.50;;;;;;5091572;28;20043;-61
2023/09/27 03:46:16;;;;;;;3.97;2.50;;;20.20;72.50;;;;;;5093408;28;20480;-62
2023/09/27 03:48:42;;;;;;;3.25;2.30;;;20.20;72.50;;;;;;5095981;28;20075;-62
2023/09/27 03:51:08;;;;;;;3.72;2.25;;;20.20;72.40;;;;;;5094659;28;20040;-62
2023/09/27 03:53:33;;;;;;;3.72;2.35;;;20.20;73.10;;;;;;5095548;28;20478;-61
2023/09/27 03:55:59;;;;;;;3.10;2.40;;;20.20;72.50;;;;;;5095304;28;20040;-61
2023/09/27 03:58:24;;;;;;;4.18;2.70;;;20.20;72.50;;;;;;5094581;28;20092;-62
2023/09/27 04:00:50;;;;;;;4.03;2.13;;;20.20;72.50;;;;;;5095014;28;20369;-62
2023/09/27 04:03:20;;;;;;;4.10;2.55;;;20.20;72.50;;;;;;5073498;28;20053;-62
2023/09/27 04:05:45;;;;;;;3.55;2.40;;;20.20;72.50;;;;;;5072434;28;20048;-62
2023/09/27 04:08:11;;;;;;;4.30;2.60;;;20.20;72.40;;;;;;5074654;28;20047;-62
2023/09/27 04:10:37;;;;;;;3.67;2.65;;;20.20;72.50;;;;;;5074922;28;20048;-61
2023/09/27 04:13:03;;;;;;;3.70;2.53;;;20.20;72.40;;;;;;5075298;28;20044;-61
2023/09/27 04:15:28;;;;;;;4.32;2.47;;;20.20;72.40;;;;;;5074929;28;20102;-62
2023/09/27 04:17:54;;;;;;;4.03;2.08;;;20.20;72.50;;;;;;5074822;28;20430;-62
2023/09/27 04:20:21;;;;;;;3.95;2.72;;;20.20;72.50;;;;;;5074866;28;20130;-62
2023/09/27 04:22:47;;;;;;;3.85;2.60;;;20.20;72.50;;;;;;5074940;28;20056;-62
2023/09/27 04:25:14;;;;;;;4.05;2.53;;;20.20;72.40;;;;;;5074334;28;20050;-62
2023/09/27 04:27:45;;;;;;;3.55;2.28;;;20.20;72.50;;;;;;5060485;28;20049;-61
2023/09/27 04:30:15;;;;;;;3.47;2.55;;;20.20;72.40;;;;;;5054692;28;20036;-61
2023/09/27 04:32:43;;;;;;;3.97;2.45;;;20.20;72.50;;;;;;5053257;28;20369;-61
2023/09/27 04:35:09;;;;;;;5.57;2.75;;;20.20;72.40;;;;;;5061744;28;20115;-61
2023/09/27 04:37:38;;;;;;;4.55;2.33;;;20.20;72.40;;;;;;5086640;28;20056;-62
2023/09/27 04:40:14;;;;;;;3.83;2.30;;;20.20;72.40;;;;;;5094251;28;20059;-62
2023/09/27 04:42:43;;;;;;;4.78;2.63;;;20.10;72.40;;;;;;5094739;28;20047;-61
2023/09/27 04:45:10;;;;;;;3.65;2.30;;;20.10;72.40;;;;;;5094249;28;20044;-61
2023/09/27 04:47:35;;;;;;;4.50;2.65;;;20.10;72.40;;;;;;5093476;28;20123;-62
2023/09/27 04:50:01;;;;;;;4.10;2.30;;;20.10;72.40;;;;;;5094848;28;20127;-62
2023/09/27 04:52:27;;;;;;;3.42;2.33;;;20.10;72.40;;;;;;5094468;28;20036;-62
2023/09/27 04:54:59;;;;;;;4.72;2.35;;;20.10;72.40;;;;;;5092721;28;20044;-61
2023/09/27 04:57:24;;;;;;;3.63;2.60;;;20.10;73.00;;;;;;5093825;28;20059;-61
2023/09/27 04:59:53;;;;;;;3.58;2.35;;;20.10;72.40;;;;;;5094223;28;20069;-62
2023/09/27 05:02:19;;;;;;;3.45;2.40;;;20.20;72.40;;;;;;5093773;28;20040;-61
2023/09/27 05:04:47;;;;;;;4.30;2.67;;;20.10;72.40;;;;;;5093495;28;20093;-61
2023/09/27 05:07:14;;;;;;;;;;;20.10;72.40;;;;;;5093989;28;20040;-61
2023/09/27 05:09:39;;;;;;;3.53;2.63;;;20.10;72.30;;;;;;5093184;28;20382;-61
2023/09/27 05:12:05;;;;;;;4.13;2.50;;;20.10;72.40;;;;;;5093945;28;20036;-61
2023/09/27 05:14:31;;;;;;;4.80;2.70;;;20.10;72.40;;;;;;5093739;28;20398;-62
2023/09/27 05:16:57;;;;;;;3.92;2.47;;;20.10;72.40;;;;;;5094014;28;20055;-61
2023/09/27 05:19:22;;;;;;;4.00;2.65;;;20.10;72.40;;;;;;5093899;28;20044;-61
2023/09/27 05:21:48;;;;;;;3.17;2.35;;;20.10;72.40;;;;;;5093539;28;20042;-61
2023/09/27 05:24:13;;;;;;;3.13;2.30;;;20.10;72.40;;;;;;5092848;28;20047;-62
2023/09/27 05:26:39;;;;;;;4.55;2.20;;;20.10;72.40;;;;;;5093720;28;20067;-62
2023/09/27 05:29:04;;;;;;;4.55;2.63;;;20.10;72.40;;;;;;5092545;28;20052;-62
2023/09/27 05:31:30;;;;;;;3.90;2.80;;;20.10;72.40;;;;;;5093684;28;20517;-62
2023/09/27 05:33:55;;;;;;;4.30;2.55;;;20.10;72.40;;;;;;5094172;28;20047;-61
2023/09/27 05:36:21;;;;;;;3.25;2.45;;;20.10;72.40;;;;;;5093363;28;20373;-61
2023/09/27 05:38:46;;;;;;;4.22;2.60;;;20.10;72.40;;;;;;5093706;28;20062;-62
2023/09/27 05:41:12;;;;;;;3.47;2.45;;;20.10;72.40;;;;;;5088982;28;20040;-61
2023/09/27 05:43:38;;;;;;;3.85;2.33;;;20.10;72.40;;;;;;5075771;28;20040;-62
2023/09/27 05:46:03;;;;;;;3.40;2.40;;;20.10;72.50;;;;;;5072899;28;20041;-62
2023/09/27 05:48:30;;;;;;;4.10;2.83;;;20.10;72.50;;;;;;5073276;28;20044;-62
2023/09/27 05:50:56;;;;;;;3.25;2.42;;;20.10;72.40;;;;;;5072757;28;20068;-61
2023/09/27 05:53:21;;;;;;;3.00;2.20;;;20.10;72.40;;;;;;5072921;28;20087;-62
2023/09/27 05:55:48;;;;;;;3.95;2.30;;;20.10;72.40;;;;;;5092907;28;20096;-62
2023/09/27 05:58:13;;;;;;;4.88;2.50;;;20.10;72.40;;;;;;5079394;28;20040;-61
2023/09/27 06:00:42;;;;;;;3.67;2.50;;;20.10;72.30;;;;;;5073126;28;20404;-62
2023/09/27 06:03:08;;;;;;;4.20;2.55;;;20.10;72.40;;;;;;5072114;28;20056;-62
2023/09/27 06:05:34;;;;;;;4.35;2.90;;;20.10;72.40;;;;;;5080735;28;20111;-62
2023/09/27 06:08:00;;;;;;;4.60;2.63;;;20.10;72.50;;;;;;5082051;28;20173;-62
2023/09/27 06:10:25;;;;;;;4.45;2.70;;;20.10;72.60;;;;;;5072374;28;20097;-61
2023/09/27 06:12:51;;;;;;;4.53;2.45;;;20.10;72.60;;;;;;5073079;28;20122;-62
2023/09/27 06:15:17;;;;;;;4.25;2.60;;;20.10;72.70;;;;;;5072387;28;20040;-62
2023/09/27 06:17:43;;;;;;;5.43;2.65;;;20.10;72.90;;;;;;5072737;28;20052;-62
2023/09/27 06:20:19;;;;;;;6.68;2.92;;;20.20;72.90;;;;;;5072665;28;20040;-62
2023/09/27 06:22:48;;;;;;;4.07;2.80;;;20.20;73.00;;;;;;5073199;28;20048;-61
2023/09/27 06:25:15;;;;;;;5.82;2.58;;;20.20;73.10;;;;;;5072006;28;20106;-62
2023/09/27 06:27:40;;;;;;;4.22;2.50;;;20.20;73.00;;;;;;5072143;28;20047;-62
2023/09/27 06:30:07;;;;;;;4.18;2.70;;;20.20;73.10;;;;;;5072570;28;20033;-62
2023/09/27 06:32:36;;;;;;;5.10;2.88;;;20.20;73.10;;;;;;5072433;28;20041;-61
2023/09/27 06:35:12;;;;;;;6.00;2.90;;;20.20;73.10;;;;;;5072587;28;20384;-64
2023/09/27 06:37:38;;;;;;;5.97;2.63;;;20.20;73.20;;;;;;5073060;28;20098;-63
2023/09/27 06:40:08;;;;;;;5.93;3.00;;;20.30;73.30;;;;;;5084930;28;20052;-63
2023/09/27 06:42:33;;;;;;;5.38;2.92;;;20.30;73.30;;;;;;5091040;28;20043;-62
2023/09/27 06:44:59;;;;;;;4.03;2.67;;;20.30;73.30;;;;;;5092790;28;20089;-61
2023/09/27 06:47:24;;;;;;;5.53;3.03;;;20.30;73.30;;;;;;5091070;28;20048;-61
2023/09/27 06:49:52;;;;;;;5.35;3.00;;;20.30;73.30;;;;;;5092800;28;20044;-62
2023/09/27 06:52:20;;;;;;;4.60;2.90;;;20.30;73.40;;;;;;5092305;28;20040;-62
2023/09/27 06:54:45;;;;;;;4.30;2.75;;;20.30;73.40;;;;;;5092338;28;20075;-62
2023/09/27 06:57:11;;;;;;;5.25;2.85;;;20.30;73.40;;;;;;5091863;28;20080;-61
2023/09/27 06:59:36;;;;;;;4.57;2.83;;;20.30;73.50;;;;;;5090711;28;20043;-62
2023/09/27 07:02:02;;;;;;;5.55;2.92;;;20.30;73.60;;;;;;5091332;28;20123;-61
2023/09/27 07:04:28;;;;;;;5.88;2.92;;;20.40;73.60;;;;;;5092936;28;20052;-61
2023/09/27 07:06:53;;;;;;;4.57;2.78;;;20.30;73.60;;;;;;5091101;28;20044;-62
2023/09/27 07:09:20;;;;;;;5.20;3.05;;;20.40;73.60;;;;;;5089338;28;20040;-62
2023/09/27 07:11:46;;;;;;;5.65;2.55;;;20.40;73.60;;;;;;5092791;28;20044;-63
2023/09/27 07:14:12;;;;;;;7.93;3.15;;;20.40;73.60;;;;;;5091848;28;20059;-63
2023/09/27 07:16:38;;;;;;;6.78;2.78;;;20.40;73.60;;;;;;5092271;28;20040;-62
2023/09/27 07:19:05;;;;;;;7.00;2.83;;;20.40;73.50;;;;;;5092341;28;20040;-63
2023/09/27 07:21:31;;;;;;;5.80;3.10;;;20.40;73.60;;;;;;5075742;28;20407;-62
2023/09/27 07:23:57;;;;;;;5.82;3.00;;;20.40;73.60;;;;;;5076114;28;20053;-62
2023/09/27 07:26:22;;;;;;;4.68;3.17;;;20.40;73.50;;;;;;5076237;28;20043;-62
2023/09/27 07:28:48;;;;;;;5.35;2.70;;;20.40;73.50;;;;;;5075223;28;20051;-62
2023/09/27 07:31:15;;;;;;;5.80;3.10;;;20.40;73.60;;;;;;5075764;28;20044;-62
2023/09/27 07:33:42;;;;;;;4.20;2.95;;;20.40;73.60;;;;;;5076388;28;20064;-63
2023/09/27 07:36:09;;;;;;;5.57;2.95;;;20.40;73.60;;;;;;5057458;28;20052;-64
2023/09/27 07:38:37;;;;;;;4.45;2.78;;;20.40;73.60;;;;;;5076043;28;20051;-63
2023/09/27 07:41:02;;;;;;;6.72;3.17;;;20.40;73.60;;;;;;5075927;28;20126;-63
2023/09/27 07:43:29;;;;;;;5.70;3.22;;;20.40;73.50;;;;;;5075334;28;20075;-64
2023/09/27 07:45:55;;;;;;;4.82;3.38;;;20.40;73.50;;;;;;5075930;28;20040;-63
2023/09/27 07:48:21;;;;;;;6.10;3.05;;;20.40;73.50;;;;;;5075463;28;20045;-62
2023/09/27 07:50:47;;;;;;;7.20;3.42;;;20.40;73.40;;;;;;5074005;28;20480;-62
2023/09/27 07:53:13;;;;;;;7.43;3.40;;;20.40;73.40;;;;;;5075622;28;20045;-62
2023/09/27 07:55:46;;;;;;;8.50;3.63;;;20.40;73.40;;;;;;5074103;28;20045;-63
2023/09/27 07:58:12;;;;;;;7.47;3.55;;;20.40;73.40;;;;;;5075401;28;20480;-63
2023/09/27 08:00:41;;;;;;;6.22;3.40;;;20.40;73.40;;;;;;5075606;28;20043;-63
2023/09/27 08:03:10;;;;;;;7.28;3.47;;;20.40;73.50;;;;;;5074755;28;20063;-63
2023/09/27 08:05:42;;;;;;;4.93;2.80;;;20.40;73.50;;;;;;5075406;28;20048;-63
2023/09/27 08:08:12;;;;;;;8.05;3.17;;;20.40;73.50;;;;;;5075457;28;20048;-63
2023/09/27 08:10:43;;;;;;;4.45;2.97;;;20.40;73.50;;;;;;5075112;28;20499;-62
2023/09/27 08:13:12;;;;;;;7.10;3.10;;;20.40;73.50;;;;;;5075027;28;20056;-63
2023/09/27 08:15:39;;;;;;;5.78;2.70;;;20.40;73.50;;;;;;5073961;28;20115;-63
2023/09/27 08:18:05;;;;;;;6.97;3.10;;;20.40;73.50;;;;;;5074280;28;20040;-63
2023/09/27 08:20:30;;;;;;;6.03;3.40;;;20.40;74.10;;;;;;5075640;28;20123;-62
2023/09/27 08:22:56;;;;;;;5.13;3.13;;;20.40;73.50;;;;;;5075490;28;20075;-63
2023/09/27 08:25:21;;;;;;;3.47;2.78;;;20.40;73.60;;;;;;5074150;28;20447;-63
2023/09/27 08:27:50;;;;;;;4.88;2.55;;;20.40;73.60;;;;;;5075080;28;20041;-63
2023/09/27 08:30:16;;;;;;;6.72;3.05;;;20.40;73.60;;;;;;5074748;28;20106;-63
2023/09/27 08:32:41;;;;;;;6.07;2.90;;;20.40;73.60;;;;;;5073442;28;20412;-63
2023/09/27 08:35:07;;;;;;;6.47;3.13;;;20.40;73.60;;;;;;5074786;28;20074;-63
2023/09/27 08:37:33;;;;;;;6.38;2.75;;;20.40;73.60;;;;;;5075321;28;20052;-63
2023/09/27 08:39:58;;;;;;;5.75;3.00;;;20.40;73.60;;;;;;5074281;28;20036;-63
2023/09/27 08:42:24;;;;;;;6.22;2.88;;;20.40;73.60;;;;;;5073313;28;20048;-63
2023/09/27 08:44:54;;;;;;;4.57;2.85;;;20.40;73.60;;;;;;5057013;28;20040;-63
2023/09/27 08:47:19;;;;;;;5.00;3.17;;;20.40;73.60;;;;;;5074131;28;20107;-63
2023/09/27 08:49:49;;;;;;;5.82;3.13;;;20.50;73.70;;;;;;5073597;28;20041;-63
2023/09/27 08:52:15;;;;;;;4.90;2.92;;;20.50;74.20;;;;;;5074093;28;20409;-63
2023/09/27 08:54:41;;;;;;;4.70;2.80;;;20.50;73.60;;;;;;5074507;28;20047;-62
2023/09/27 08:57:08;;;;;;;5.13;3.03;;;20.50;73.60;;;;;;5074188;28;20467;-62
2023/09/27 08:59:34;;;;;;;4.20;2.88;;;20.50;73.60;;;;;;5072774;28;20119;-62
2023/09/27 09:02:00;;;;;;;5.25;3.05;;;20.50;73.50;;;;;;5056479;28;20439;-63
2023/09/27 09:04:27;;;;;;;4.85;3.05;;;20.50;73.50;;;;;;5072837;28;20166;-63
2023/09/27 09:06:52;;;;;;;6.45;2.63;;;20.60;73.60;;;;;;5074076;28;20052;-63
2023/09/27 09:09:18;;;;;;;5.40;3.17;;;20.60;73.60;;;;;;5074141;28;20045;-63
2023/09/27 09:11:47;;;;;;;6.05;3.05;;;20.60;73.50;;;;;;5074517;28;20115;-63
2023/09/27 09:14:22;;;;;;;4.72;2.85;;;20.60;73.50;;;;;;5073144;28;20045;-63
2023/09/27 09:16:53;;;;;;;4.93;2.90;;;20.60;73.60;;;;;;5074385;28;20048;-63
2023/09/27 09:19:25;;;;;;;6.25;2.80;;;20.70;73.50;;;;;;5073977;28;20101;-63
2023/09/27 09:22:11;;;;;;;5.38;3.30;;;20.70;73.50;;;;;;5073370;28;20404;-63
2023/09/27 09:24:37;;;;;;;6.03;3.03;;;20.70;73.50;;;;;;5074174;28;20076;-63
2023/09/27 09:27:10;;;;;;;5.55;2.75;;;20.70;73.50;;;;;;5073654;28;20040;-63
2023/09/27 09:29:45;;;;;;;4.50;3.15;;;20.70;73.50;;;;;;5073969;28;20476;-63
2023/09/27 09:32:11;;;;;;;6.10;3.13;;;20.70;73.50;;;;;;5073471;28;20392;-63
2023/09/27 09:34:41;;;;;;;3.85;2.75;;;20.80;73.50;;;;;;5073463;28;20516;-63
2023/09/27 09:37:16;;;;;;;4.65;2.95;;;20.80;73.50;;;;;;5073306;28;20036;-63
2023/09/27 09:39:42;;;;;;;4.47;2.80;;;20.80;73.50;;;;;;5073857;28;20123;-62
2023/09/27 09:42:08;;;;;;;6.72;3.00;;;20.80;73.40;;;;;;5072801;28;20449;-63
2023/09/27 09:44:34;;;;;;;3.78;2.50;;;20.80;73.40;;;;;;5074015;28;20444;-63
2023/09/27 09:47:10;;;;;;;4.75;3.00;;;20.80;73.40;;;;;;5073525;28;20072;-63
2023/09/27 09:49:35;;;;;;;7.57;2.83;;;20.80;73.40;;;;;;5072850;28;20123;-63
2023/09/27 09:52:01;;;;;;;4.57;2.90;;;20.80;73.40;;;;;;5073577;28;20119;-63
2023/09/27 09:54:37;;;;;;;5.00;2.67;;;20.80;73.40;;;;;;5055640;28;20036;-62
2023/09/27 09:57:04;;;;;;;3.67;2.67;;;20.80;73.30;;;;;;5072720;28;20052;-63
2023/09/27 09:59:38;;;;;;;3.88;2.45;;;20.80;73.40;;;;;;5072347;28;20044;-63
2023/09/27 10:02:07;;;;;;;4.40;2.90;;;20.80;73.40;;;;;;5055441;28;20040;-62
2023/09/27 10:04:33;;;;;;;5.43;2.83;;;20.80;73.40;;;;;;5071560;28;20129;-63
2023/09/27 10:06:58;;;;;;;4.55;2.40;;;20.80;73.40;;;;;;5073006;28;20472;-63
2023/09/27 10:09:28;;;;;;;4.85;2.40;;;20.80;73.40;;;;;;5054591;28;20048;-62
2023/09/27 10:11:54;;;;;;;5.88;2.95;;;20.80;73.50;;;;;;5072048;28;20076;-63
2023/09/27 10:14:20;;;;;;;4.88;2.60;;;20.80;73.50;;;;;;5071332;28;20503;-63
2023/09/27 10:16:48;;;;;;;5.32;3.15;;;20.80;73.50;;;;;;5072304;28;20102;-63
2023/09/27 10:19:28;;;;;;;4.50;2.55;;;20.80;73.50;;;;;;5071653;28;20136;-63
2023/09/27 10:22:14;;;;;;;4.07;2.55;;;20.80;73.50;;;;;;5072135;28;20040;-63
2023/09/27 10:24:42;;;;;;;4.13;2.60;;;20.80;73.50;;;;;;5072577;28;20063;-63
2023/09/27 10:27:08;;;;;;;4.43;2.70;;;20.90;73.50;;;;;;5072486;28;20048;-62
2023/09/27 10:30:00;;;;;;;4.07;2.60;;;20.90;73.50;;;;;;5073083;28;20088;-63
2023/09/27 10:32:26;;;;;;;5.20;3.17;;;20.90;73.50;;;;;;5070845;28;20048;-62
2023/09/27 10:34:52;;;;;;;4.53;2.83;;;20.90;73.50;;;;;;5072648;28;20131;-62
2023/09/27 10:37:57;;;;;;;5.22;3.03;;;20.90;73.50;;;;;;5072532;28;20119;-63
2023/09/27 10:40:22;;;;;;;6.05;3.33;;;20.90;73.40;;;;;;5072059;28;20048;-63
2023/09/27 10:42:48;;;;;;;6.35;3.92;;;20.90;73.30;;;;;;5072863;28;20036;-63
2023/09/27 10:45:15;;;;;;;5.82;3.40;;;20.90;73.30;;;;;;5070257;28;20048;-63
2023/09/27 10:47:42;;;;;;;5.00;3.28;;;20.90;73.40;;;;;;5072723;28;20047;-63
2023/09/27 10:50:08;;;;;;;7.68;4.05;;;20.90;73.40;;;;;;5072349;28;20041;-63
2023/09/27 10:52:36;;;;;;;5.78;3.83;;;20.90;73.50;;;;;;5072326;28;20037;-63
2023/09/27 10:55:12;;;;;;;6.47;3.90;;;21.00;73.70;;;;;;5071209;28;20072;-63
2023/09/27 10:57:39;;;;;;;6.78;3.15;;;21.00;73.80;;;;;;5072858;28;20084;-66
2023/09/27 11:00:10;;;;;;;6.00;3.53;;;21.00;73.60;;;;;;5071493;28;20070;-63
2023/09/27 11:02:36;;;;;;;7.20;3.80;;;21.00;73.60;;;;;;5072218;28;20050;-62
2023/09/27 11:05:01;;;;;;;5.95;3.90;;;21.00;73.60;;;;;;5071253;28;20052;-62
2023/09/27 11:07:46;;;;;;;6.22;3.63;;;21.00;73.60;;;;;;5072004;28;20051;-62
2023/09/27 11:10:36;;;;;;;7.20;3.80;;;21.10;73.70;;;;;;5071164;28;20048;-62
2023/09/27 11:13:12;;;;;;;11.20;4.45;;;21.10;73.70;;;;;;5071393;28;20143;-62
2023/09/27 11:15:38;;;;;;;8.07;3.83;;;21.10;73.70;;;;;;5070515;28;20044;-62
2023/09/27 11:18:05;;;;;;;9.43;4.50;;;21.00;73.60;;;;;;5071246;28;20559;-61
2023/09/27 11:20:30;;;;;;;8.20;5.07;;;21.00;73.60;;;;;;5067381;28;20669;-62
2023/09/27 11:22:58;;;;;;;9.43;4.88;;;21.00;73.60;;;;;;5071282;28;20041;-61
2023/09/27 11:25:30;;;;;;;11.20;4.70;;;21.00;73.70;;;;;;5071454;28;20091;-62
2023/09/27 11:27:56;;;;;;;7.28;4.57;;;21.00;73.70;;;;;;5069059;28;20048;-61
2023/09/27 11:30:34;;;;;;;9.25;4.40;;;21.10;73.80;;;;;;5069103;28;20673;-61
2023/09/27 11:33:04;;;;;;;8.25;4.30;;;21.10;73.80;;;;;;5071806;28;20487;-61
2023/09/27 11:35:30;;;;;;;7.40;4.53;;;21.10;73.90;;;;;;5070622;28;20094;-61
2023/09/27 11:38:12;;;;;;;10.55;3.90;;;21.10;73.90;;;;;;5070866;28;20117;-62
2023/09/27 11:40:39;;;;;;;7.18;4.28;;;21.10;73.90;;;;;;5071438;28;20119;-61
2023/09/27 11:43:05;;;;;;;6.18;4.13;;;21.10;73.90;;;;;;5070200;28;20091;-61
2023/09/27 11:45:44;;;;;;;6.45;4.05;;;21.10;73.90;;;;;;5071951;28;20040;-61
2023/09/27 11:48:09;;;;;;;8.57;4.18;;;21.10;73.90;;;;;;5071158;28;20052;-62
2023/09/27 11:50:35;;;;;;;6.93;4.25;;;21.10;73.90;;;;;;5070327;28;20048;-61
2023/09/27 11:53:00;;;;;;;6.10;3.45;;;21.10;73.90;;;;;;5072221;28;20111;-61
2023/09/27 11:55:26;;;;;;;7.55;3.92;;;21.10;73.90;;;;;;5070989;28;20128;-61
2023/09/27 11:57:56;;;;;;;8.52;4.03;;;21.20;74.00;;;;;;5070719;28;20043;-61
2023/09/27 12:00:22;;;;;;;6.00;3.60;;;21.20;74.00;;;;;;5071705;28;20041;-62
2023/09/27 12:02:48;;;;;;;7.85;3.75;;;21.20;74.00;;;;;;5069039;28;20044;-62
2023/09/27 12:05:14;;;;;;;6.18;3.60;;;21.20;74.00;;;;;;5070759;28;20381;-62
2023/09/27 12:07:41;;;;;;;6.28;3.25;;;21.20;74.00;;;;;;5073841;28;20044;-61
2023/09/27 12:10:07;;;;;;;6.82;3.47;;;21.20;74.00;;;;;;5073417;28;20391;-61
2023/09/27 12:12:33;;;;;;;5.88;3.33;;;21.20;74.00;;;;;;5074957;28;20044;-61
2023/09/27 12:15:00;;;;;;;7.30;3.83;;;21.20;74.00;;;;;;5074897;28;20044;-61
2023/09/27 12:17:26;;;;;;;8.32;3.80;;;21.20;74.00;;;;;;5073434;28;20508;-61
2023/09/27 12:19:51;;;;;;;6.47;3.47;;;21.20;74.00;;;;;;5074245;28;20048;-61
2023/09/27 12:22:18;;;;;;;8.20;4.00;;;21.20;74.00;;;;;;5074552;28;20495;-61
2023/09/27 12:24:43;;;;;;;8.93;4.05;;;21.20;73.90;;;;;;5073788;28;20044;-61
2023/09/27 12:27:09;;;;;;;5.50;3.60;;;21.20;73.90;;;;;;5073041;28;20070;-61
2023/09/27 12:29:35;;;;;;;6.70;3.65;;;21.20;73.90;;;;;;5074596;28;20045;-61
2023/09/27 12:32:01;;;;;;;7.45;4.10;;;21.20;73.80;;;;;;5073579;28;20369;-62
2023/09/27 12:34:29;;;;;;;36.78;16.20;;;21.20;73.80;;;;;;5073998;28;20048;-63
2023/09/27 12:36:55;;;;;;;22.92;11.27;;;21.20;73.80;;;;;;5073070;28;20041;-65
2023/09/27 12:39:21;;;;;;;15.40;8.15;;;21.20;73.90;;;;;;5072392;28;20056;-65
2023/09/27 12:41:46;;;;;;;21.27;8.10;;;21.20;74.20;;;;;;5074228;28;20123;-66
2023/09/27 12:44:12;;;;;;;21.90;7.00;;;21.20;74.10;;;;;;5106306;28;20103;-66
2023/09/27 12:46:40;;;;;;;;;;;21.20;74.20;;;;;;5072775;28;20076;-64